Dati Storici

Data ora Umidita' aria (%) Temperatura aria (°C) Rad globale (W/m²) Gonioanemometro (°) Tacoanemometro (m/s) Pioggia (mm)
21-10-2012 06:00 91.4 % 12.737 2.76 92.793 -0.014 0
21-10-2012 05:50 91.5 % 12.788 2.632 1.486 -0.007 0
21-10-2012 05:40 91.7 % 12.833 2.427 32.567 0.638 0
21-10-2012 05:30 92.3 % 12.936 2.568 351.563 -0.015 0
21-10-2012 05:20 92.9 % 12.939 3.003 340.686 0.391 0
21-10-2012 05:10 93.3 % 12.984 3.286 355.456 0.052 0
21-10-2012 05:00 93.3 % 12.849 3.452 348.813 0.297 0
21-10-2012 04:50 93.5 % 12.794 3.153 287.346 -0.016 0
21-10-2012 04:40 93.9 % 12.859 3.423 181.894 0.114 0
21-10-2012 04:30 94.1 % 12.811 3.153 216.154 0.214 0
21-10-2012 04:20 94.3 % 12.87 3.295 1.117 -0.015 0
21-10-2012 04:10 94.6 % 12.853 3.615 329.554 0.198 0
21-10-2012 04:00 94.8 % 12.794 3.577 304.118 0.011 0
21-10-2012 03:50 94.7 % 12.586 3.025 247.033 0.349 0
21-10-2012 03:40 94.8 % 12.593 3.025 221.516 -0.012 0
21-10-2012 03:30 95 % 12.575 3.602 332.357 0.579 0
21-10-2012 03:20 95 % 12.46 3.538 292.909 0.106 0
21-10-2012 03:10 94.9 % 12.246 3.384 319.651 -0.01 0
21-10-2012 03:00 95 % 12.258 2.333 253.701 0.173 0
21-10-2012 02:50 94.7 % 12.141 2.218 277.534 0.138 0

I dati sono presentati in modo automatico a scopo informativo. In seguito a verifica i dati possono subire modifiche o essere invalidati e non riportati negli archivi definitivi.